sensor_id;sensor_type;location;lat;lon;timestamp;P1;durP1;ratioP1;P2;durP2;ratioP2
22289;SDS011;11313;50.116;8.424;2023-05-10T00:00:10;1999.90;;;999.90;;
22289;SDS011;11313;50.116;8.424;2023-05-10T00:02:36;708.88;;;636.28;;
22289;SDS011;11313;50.116;8.424;2023-05-10T00:05:01;643.55;;;579.17;;
22289;SDS011;11313;50.116;8.424;2023-05-10T00:07:27;1012.95;;;855.78;;
22289;SDS011;11313;50.116;8.424;2023-05-10T00:09:52;972.15;;;872.83;;
22289;SDS011;11313;50.116;8.424;2023-05-10T00:12:18;387.67;;;259.17;;
22289;SDS011;11313;50.116;8.424;2023-05-10T00:14:43;1999.90;;;999.90;;
22289;SDS011;11313;50.116;8.424;2023-05-10T00:17:09;1999.90;;;995.42;;
22289;SDS011;11313;50.116;8.424;2023-05-10T00:19:35;1786.80;;;997.15;;
22289;SDS011;11313;50.116;8.424;2023-05-10T00:22:00;1999.90;;;984.75;;
22289;SDS011;11313;50.116;8.424;2023-05-10T00:24:26;1310.70;;;960.95;;
22289;SDS011;11313;50.116;8.424;2023-05-10T00:26:52;1995.53;;;989.67;;
22289;SDS011;11313;50.116;8.424;2023-05-10T00:29:17;1999.90;;;999.90;;
22289;SDS011;11313;50.116;8.424;2023-05-10T00:31:43;1999.90;;;999.90;;
22289;SDS011;11313;50.116;8.424;2023-05-10T00:34:09;1999.90;;;999.90;;
22289;SDS011;11313;50.116;8.424;2023-05-10T00:36:34;1427.57;;;902.78;;
22289;SDS011;11313;50.116;8.424;2023-05-10T00:39:00;642.10;;;585.20;;
22289;SDS011;11313;50.116;8.424;2023-05-10T00:41:25;974.38;;;873.83;;
22289;SDS011;11313;50.116;8.424;2023-05-10T00:43:51;1087.53;;;950.80;;
22289;SDS011;11313;50.116;8.424;2023-05-10T00:46:16;1102.90;;;850.33;;
22289;SDS011;11313;50.116;8.424;2023-05-10T00:48:42;1386.80;;;999.90;;
22289;SDS011;11313;50.116;8.424;2023-05-10T00:51:09;1999.90;;;999.90;;
22289;SDS011;11313;50.116;8.424;2023-05-10T00:53:35;1999.90;;;986.10;;
22289;SDS011;11313;50.116;8.424;2023-05-10T00:56:00;1999.90;;;999.90;;
22289;SDS011;11313;50.116;8.424;2023-05-10T00:58:28;1999.90;;;999.90;;
22289;SDS011;11313;50.116;8.424;2023-05-10T01:00:54;1880.95;;;975.17;;
22289;SDS011;11313;50.116;8.424;2023-05-10T01:03:21;1087.13;;;898.25;;
22289;SDS011;11313;50.116;8.424;2023-05-10T01:05:46;1999.90;;;999.90;;
22289;SDS011;11313;50.116;8.424;2023-05-10T01:08:12;1999.90;;;998.85;;
22289;SDS011;11313;50.116;8.424;2023-05-10T01:10:37;1935.15;;;968.20;;
22289;SDS011;11313;50.116;8.424;2023-05-10T01:13:03;1999.90;;;999.90;;
22289;SDS011;11313;50.116;8.424;2023-05-10T01:15:29;1163.15;;;788.05;;
22289;SDS011;11313;50.116;8.424;2023-05-10T01:17:56;1999.90;;;999.90;;
22289;SDS011;11313;50.116;8.424;2023-05-10T01:20:21;1289.63;;;983.80;;
22289;SDS011;11313;50.116;8.424;2023-05-10T01:23:00;1631.30;;;999.90;;
22289;SDS011;11313;50.116;8.424;2023-05-10T01:31:22;1048.57;;;932.17;;
22289;SDS011;11313;50.116;8.424;2023-05-10T01:33:59;652.28;;;592.40;;
22289;SDS011;11313;50.116;8.424;2023-05-10T01:36:43;1182.32;;;971.60;;
22289;SDS011;11313;50.116;8.424;2023-05-10T01:39:55;1432.72;;;999.90;;
22289;SDS011;11313;50.116;8.424;2023-05-10T01:42:26;1640.50;;;999.90;;
22289;SDS011;11313;50.116;8.424;2023-05-10T01:45:00;1999.90;;;995.33;;
22289;SDS011;11313;50.116;8.424;2023-05-10T01:47:46;840.83;;;758.67;;
22289;SDS011;11313;50.116;8.424;2023-05-10T01:50:16;1999.90;;;921.00;;
22289;SDS011;11313;50.116;8.424;2023-05-10T01:52:46;906.03;;;817.75;;
22289;SDS011;11313;50.116;8.424;2023-05-10T01:55:16;797.40;;;583.13;;
22289;SDS011;11313;50.116;8.424;2023-05-10T01:57:45;758.58;;;681.55;;
22289;SDS011;11313;50.116;8.424;2023-05-10T02:00:13;595.67;;;539.42;;
22289;SDS011;11313;50.116;8.424;2023-05-10T02:02:40;860.22;;;780.08;;
22289;SDS011;11313;50.116;8.424;2023-05-10T02:05:10;989.83;;;652.55;;
22289;SDS011;11313;50.116;8.424;2023-05-10T02:07:38;1999.90;;;988.05;;
22289;SDS011;11313;50.116;8.424;2023-05-10T09:15:32;1999.90;;;999.90;;
22289;SDS011;11313;50.116;8.424;2023-05-10T09:17:57;1999.90;;;999.90;;
22289;SDS011;11313;50.116;8.424;2023-05-10T09:20:27;1999.90;;;999.90;;
22289;SDS011;11313;50.116;8.424;2023-05-10T09:22:52;1999.90;;;999.90;;
22289;SDS011;11313;50.116;8.424;2023-05-10T09:25:18;1999.90;;;999.90;;
22289;SDS011;11313;50.116;8.424;2023-05-10T09:27:45;1999.90;;;999.90;;
22289;SDS011;11313;50.116;8.424;2023-05-10T09:30:19;1999.90;;;999.90;;
22289;SDS011;11313;50.116;8.424;2023-05-10T09:35:19;1999.90;;;999.90;;
22289;SDS011;11313;50.116;8.424;2023-05-10T09:37:46;1999.90;;;999.90;;
22289;SDS011;11313;50.116;8.424;2023-05-10T09:40:15;1999.90;;;999.90;;
22289;SDS011;11313;50.116;8.424;2023-05-10T09:42:52;1999.90;;;999.90;;
22289;SDS011;11313;50.116;8.424;2023-05-10T09:45:18;1999.90;;;999.90;;
22289;SDS011;11313;50.116;8.424;2023-05-10T09:47:44;1999.90;;;999.90;;
22289;SDS011;11313;50.116;8.424;2023-05-10T09:50:10;1999.90;;;999.90;;
22289;SDS011;11313;50.116;8.424;2023-05-10T09:52:52;1999.90;;;999.90;;
22289;SDS011;11313;50.116;8.424;2023-05-10T09:55:37;1999.90;;;999.90;;
22289;SDS011;11313;50.116;8.424;2023-05-10T09:58:04;1999.90;;;999.90;;
22289;SDS011;11313;50.116;8.424;2023-05-10T10:00:35;1999.90;;;999.90;;
22289;SDS011;11313;50.116;8.424;2023-05-10T10:03:02;1999.90;;;999.90;;
22289;SDS011;11313;50.116;8.424;2023-05-10T10:05:32;1999.90;;;999.90;;
22289;SDS011;11313;50.116;8.424;2023-05-10T10:10:26;1999.90;;;999.90;;
22289;SDS011;11313;50.116;8.424;2023-05-10T10:12:52;1999.90;;;999.90;;
22289;SDS011;11313;50.116;8.424;2023-05-10T10:15:18;1999.90;;;999.90;;
22289;SDS011;11313;50.116;8.424;2023-05-10T10:17:45;1999.90;;;999.90;;
22289;SDS011;11313;50.116;8.424;2023-05-10T10:20:13;1999.90;;;999.90;;
22289;SDS011;11313;50.116;8.424;2023-05-10T10:22:39;1999.90;;;999.90;;
22289;SDS011;11313;50.116;8.424;2023-05-10T10:25:05;1999.90;;;999.90;;
22289;SDS011;11313;50.116;8.424;2023-05-10T10:35:38;1999.90;;;999.90;;
22289;SDS011;11313;50.116;8.424;2023-05-10T10:38:05;1999.90;;;999.90;;
22289;SDS011;11313;50.116;8.424;2023-05-10T10:40:33;1999.90;;;999.90;;
22289;SDS011;11313;50.116;8.424;2023-05-10T10:46:09;1999.90;;;999.90;;
22289;SDS011;11313;50.116;8.424;2023-05-10T10:48:49;1999.90;;;999.90;;
22289;SDS011;11313;50.116;8.424;2023-05-10T10:54:08;1999.90;;;999.90;;
22289;SDS011;11313;50.116;8.424;2023-05-10T10:56:35;1999.90;;;999.90;;
22289;SDS011;11313;50.116;8.424;2023-05-10T10:59:00;1999.90;;;999.90;;
22289;SDS011;11313;50.116;8.424;2023-05-10T11:01:26;1999.90;;;999.90;;
22289;SDS011;11313;50.116;8.424;2023-05-10T11:06:31;1999.90;;;999.90;;
22289;SDS011;11313;50.116;8.424;2023-05-10T11:09:04;1999.90;;;999.90;;
22289;SDS011;11313;50.116;8.424;2023-05-10T11:11:34;1999.90;;;999.90;;
22289;SDS011;11313;50.116;8.424;2023-05-10T11:14:04;1999.90;;;999.90;;
22289;SDS011;11313;50.116;8.424;2023-05-10T11:16:41;1999.90;;;999.90;;
22289;SDS011;11313;50.116;8.424;2023-05-10T11:19:10;1999.90;;;999.90;;
22289;SDS011;11313;50.116;8.424;2023-05-10T11:24:38;1999.90;;;999.90;;
22289;SDS011;11313;50.116;8.424;2023-05-10T11:27:03;1999.90;;;999.90;;
22289;SDS011;11313;50.116;8.424;2023-05-10T11:29:30;1999.90;;;999.90;;
22289;SDS011;11313;50.116;8.424;2023-05-10T11:31:58;1999.90;;;999.90;;
22289;SDS011;11313;50.116;8.424;2023-05-10T11:36:52;1999.90;;;999.90;;
22289;SDS011;11313;50.116;8.424;2023-05-10T11:39:19;1999.90;;;999.90;;
22289;SDS011;11313;50.116;8.424;2023-05-10T11:41:49;1999.90;;;999.90;;
22289;SDS011;11313;50.116;8.424;2023-05-10T11:44:14;1999.90;;;999.90;;
22289;SDS011;11313;50.116;8.424;2023-05-10T11:46:40;1999.90;;;999.90;;
22289;SDS011;11313;50.116;8.424;2023-05-10T11:49:06;1999.90;;;999.90;;
22289;SDS011;11313;50.116;8.424;2023-05-10T11:51:35;1999.90;;;999.90;;
22289;SDS011;11313;50.116;8.424;2023-05-10T11:54:01;1999.90;;;999.90;;
22289;SDS011;11313;50.116;8.424;2023-05-10T11:56:34;1999.90;;;999.90;;
22289;SDS011;11313;50.116;8.424;2023-05-10T11:59:00;1999.90;;;999.90;;
22289;SDS011;11313;50.116;8.424;2023-05-10T12:01:27;1999.90;;;999.90;;
22289;SDS011;11313;50.116;8.424;2023-05-10T12:03:54;1999.90;;;999.90;;
22289;SDS011;11313;50.116;8.424;2023-05-10T12:06:25;1999.90;;;999.90;;
22289;SDS011;11313;50.116;8.424;2023-05-10T12:08:52;1999.90;;;999.90;;
22289;SDS011;11313;50.116;8.424;2023-05-10T12:11:18;1999.90;;;999.90;;
22289;SDS011;11313;50.116;8.424;2023-05-10T12:13:45;1999.90;;;999.90;;
22289;SDS011;11313;50.116;8.424;2023-05-10T12:16:13;1999.90;;;999.90;;
22289;SDS011;11313;50.116;8.424;2023-05-10T12:18:42;1999.90;;;999.90;;
22289;SDS011;11313;50.116;8.424;2023-05-10T12:21:09;1999.90;;;999.90;;
22289;SDS011;11313;50.116;8.424;2023-05-10T12:23:36;1999.90;;;999.90;;
22289;SDS011;11313;50.116;8.424;2023-05-10T12:26:02;1999.90;;;999.90;;
22289;SDS011;11313;50.116;8.424;2023-05-10T12:28:32;1999.90;;;999.90;;
22289;SDS011;11313;50.116;8.424;2023-05-10T12:31:01;1999.90;;;999.90;;
22289;SDS011;11313;50.116;8.424;2023-05-10T12:33:27;1999.90;;;999.90;;
22289;SDS011;11313;50.116;8.424;2023-05-10T12:36:01;1999.90;;;999.90;;
22289;SDS011;11313;50.116;8.424;2023-05-10T12:41:01;1999.90;;;999.90;;
22289;SDS011;11313;50.116;8.424;2023-05-10T12:43:28;1999.90;;;999.90;;
22289;SDS011;11313;50.116;8.424;2023-05-10T12:45:54;1999.90;;;999.90;;
22289;SDS011;11313;50.116;8.424;2023-05-10T12:48:20;1999.90;;;999.90;;
22289;SDS011;11313;50.116;8.424;2023-05-10T12:50:45;1999.90;;;999.90;;
22289;SDS011;11313;50.116;8.424;2023-05-10T12:53:12;1999.90;;;999.90;;
22289;SDS011;11313;50.116;8.424;2023-05-10T12:55:41;1999.90;;;999.90;;
22289;SDS011;11313;50.116;8.424;2023-05-10T12:58:07;1999.90;;;999.90;;
22289;SDS011;11313;50.116;8.424;2023-05-10T13:00:33;1999.90;;;999.90;;
22289;SDS011;11313;50.116;8.424;2023-05-10T13:02:58;1999.90;;;999.90;;
22289;SDS011;11313;50.116;8.424;2023-05-10T13:05:24;1999.90;;;999.90;;
22289;SDS011;11313;50.116;8.424;2023-05-10T13:07:49;1999.90;;;999.90;;
22289;SDS011;11313;50.116;8.424;2023-05-10T13:10:15;1999.90;;;999.90;;
22289;SDS011;11313;50.116;8.424;2023-05-10T13:12:41;1999.90;;;999.90;;
22289;SDS011;11313;50.116;8.424;2023-05-10T13:15:06;1999.90;;;999.90;;
22289;SDS011;11313;50.116;8.424;2023-05-10T13:17:32;1999.90;;;999.90;;
22289;SDS011;11313;50.116;8.424;2023-05-10T13:19:58;1999.90;;;999.90;;
22289;SDS011;11313;50.116;8.424;2023-05-10T13:22:23;1999.90;;;999.90;;
22289;SDS011;11313;50.116;8.424;2023-05-10T13:24:49;1999.90;;;999.90;;
22289;SDS011;11313;50.116;8.424;2023-05-10T13:27:14;1999.90;;;999.90;;
22289;SDS011;11313;50.116;8.424;2023-05-10T13:29:40;1999.90;;;999.90;;
22289;SDS011;11313;50.116;8.424;2023-05-10T13:32:06;1999.90;;;999.90;;
22289;SDS011;11313;50.116;8.424;2023-05-10T13:34:32;1999.90;;;999.90;;
22289;SDS011;11313;50.116;8.424;2023-05-10T13:36:57;1999.90;;;999.90;;
22289;SDS011;11313;50.116;8.424;2023-05-10T13:39:23;1999.90;;;999.90;;
22289;SDS011;11313;50.116;8.424;2023-05-10T13:41:48;1999.90;;;999.90;;
22289;SDS011;11313;50.116;8.424;2023-05-10T13:44:14;1999.90;;;999.90;;
22289;SDS011;11313;50.116;8.424;2023-05-10T13:46:40;1999.90;;;999.90;;
22289;SDS011;11313;50.116;8.424;2023-05-10T13:49:08;1999.90;;;999.90;;
22289;SDS011;11313;50.116;8.424;2023-05-10T13:51:34;1999.90;;;999.90;;
22289;SDS011;11313;50.116;8.424;2023-05-10T13:54:00;1999.90;;;999.90;;
22289;SDS011;11313;50.116;8.424;2023-05-10T13:56:29;1999.90;;;999.90;;
22289;SDS011;11313;50.116;8.424;2023-05-10T13:58:56;1999.90;;;999.90;;
22289;SDS011;11313;50.116;8.424;2023-05-10T14:01:23;1999.90;;;999.90;;
22289;SDS011;11313;50.116;8.424;2023-05-10T14:03:48;1999.90;;;999.90;;
22289;SDS011;11313;50.116;8.424;2023-05-10T14:06:14;1999.90;;;999.90;;
22289;SDS011;11313;50.116;8.424;2023-05-10T14:08:39;1999.90;;;999.90;;
22289;SDS011;11313;50.116;8.424;2023-05-10T14:11:05;1999.90;;;999.90;;
22289;SDS011;11313;50.116;8.424;2023-05-10T14:13:31;1999.90;;;999.90;;
22289;SDS011;11313;50.116;8.424;2023-05-10T14:15:57;1999.90;;;999.90;;
22289;SDS011;11313;50.116;8.424;2023-05-10T14:18:23;1999.90;;;999.90;;
22289;SDS011;11313;50.116;8.424;2023-05-10T14:20:49;1999.90;;;999.90;;
22289;SDS011;11313;50.116;8.424;2023-05-10T14:23:14;1999.90;;;999.90;;
22289;SDS011;11313;50.116;8.424;2023-05-10T14:25:40;1999.90;;;999.90;;
22289;SDS011;11313;50.116;8.424;2023-05-10T14:28:05;1999.90;;;999.90;;
22289;SDS011;11313;50.116;8.424;2023-05-10T14:30:31;1999.90;;;999.90;;
22289;SDS011;11313;50.116;8.424;2023-05-10T14:32:58;1999.90;;;999.90;;
22289;SDS011;11313;50.116;8.424;2023-05-10T14:35:26;1999.90;;;999.90;;
22289;SDS011;11313;50.116;8.424;2023-05-10T14:37:52;1999.90;;;999.90;;
22289;SDS011;11313;50.116;8.424;2023-05-10T14:40:17;1999.90;;;999.90;;
22289;SDS011;11313;50.116;8.424;2023-05-10T14:42:43;1999.90;;;999.90;;
22289;SDS011;11313;50.116;8.424;2023-05-10T14:45:09;1999.90;;;999.90;;
22289;SDS011;11313;50.116;8.424;2023-05-10T14:47:35;1999.90;;;999.90;;
22289;SDS011;11313;50.116;8.424;2023-05-10T14:50:01;1999.90;;;999.90;;
22289;SDS011;11313;50.116;8.424;2023-05-10T14:52:26;1999.90;;;999.90;;
22289;SDS011;11313;50.116;8.424;2023-05-10T14:54:52;1999.90;;;999.90;;
22289;SDS011;11313;50.116;8.424;2023-05-10T14:57:18;1999.90;;;999.90;;
22289;SDS011;11313;50.116;8.424;2023-05-10T14:59:44;1999.90;;;999.90;;
22289;SDS011;11313;50.116;8.424;2023-05-10T15:02:09;1999.90;;;999.90;;
22289;SDS011;11313;50.116;8.424;2023-05-10T15:04:35;1999.90;;;999.90;;
22289;SDS011;11313;50.116;8.424;2023-05-10T15:07:00;1999.90;;;999.90;;
22289;SDS011;11313;50.116;8.424;2023-05-10T15:09:26;1999.90;;;999.90;;
22289;SDS011;11313;50.116;8.424;2023-05-10T15:11:52;1999.90;;;999.90;;
22289;SDS011;11313;50.116;8.424;2023-05-10T15:14:18;1999.90;;;999.90;;
22289;SDS011;11313;50.116;8.424;2023-05-10T15:16:44;1999.90;;;999.90;;
22289;SDS011;11313;50.116;8.424;2023-05-10T15:19:09;1999.90;;;999.90;;
22289;SDS011;11313;50.116;8.424;2023-05-10T15:21:35;1999.90;;;999.90;;
22289;SDS011;11313;50.116;8.424;2023-05-10T15:24:04;1999.90;;;999.90;;
22289;SDS011;11313;50.116;8.424;2023-05-10T15:26:30;1999.90;;;999.90;;
22289;SDS011;11313;50.116;8.424;2023-05-10T15:28:56;1999.90;;;999.90;;
22289;SDS011;11313;50.116;8.424;2023-05-10T15:31:21;1999.90;;;999.90;;
22289;SDS011;11313;50.116;8.424;2023-05-10T15:33:47;1999.90;;;999.90;;
22289;SDS011;11313;50.116;8.424;2023-05-10T15:36:12;1999.90;;;999.90;;
22289;SDS011;11313;50.116;8.424;2023-05-10T15:38:38;1999.90;;;999.90;;
22289;SDS011;11313;50.116;8.424;2023-05-10T15:41:03;1999.90;;;999.90;;
22289;SDS011;11313;50.116;8.424;2023-05-10T15:43:29;1999.90;;;999.90;;
22289;SDS011;11313;50.116;8.424;2023-05-10T15:45:54;1999.90;;;999.90;;
22289;SDS011;11313;50.116;8.424;2023-05-10T15:48:20;1999.90;;;999.90;;
22289;SDS011;11313;50.116;8.424;2023-05-10T15:50:46;1999.90;;;999.90;;
22289;SDS011;11313;50.116;8.424;2023-05-10T15:53:11;1999.90;;;999.90;;
22289;SDS011;11313;50.116;8.424;2023-05-10T15:55:36;1999.90;;;999.90;;
22289;SDS011;11313;50.116;8.424;2023-05-10T15:58:02;1999.90;;;999.90;;
22289;SDS011;11313;50.116;8.424;2023-05-10T16:00:28;1999.90;;;999.90;;
22289;SDS011;11313;50.116;8.424;2023-05-10T16:02:54;1999.90;;;999.90;;
22289;SDS011;11313;50.116;8.424;2023-05-10T16:05:19;1999.90;;;999.90;;
22289;SDS011;11313;50.116;8.424;2023-05-10T16:07:46;1999.90;;;999.90;;
22289;SDS011;11313;50.116;8.424;2023-05-10T16:10:11;1999.90;;;999.90;;
22289;SDS011;11313;50.116;8.424;2023-05-10T16:12:37;1999.90;;;999.90;;
22289;SDS011;11313;50.116;8.424;2023-05-10T16:15:03;1999.90;;;999.90;;
22289;SDS011;11313;50.116;8.424;2023-05-10T16:17:29;1999.90;;;999.90;;
22289;SDS011;11313;50.116;8.424;2023-05-10T16:19:54;1999.90;;;999.90;;
22289;SDS011;11313;50.116;8.424;2023-05-10T16:22:20;1999.90;;;999.90;;
22289;SDS011;11313;50.116;8.424;2023-05-10T16:24:46;1999.90;;;999.90;;
22289;SDS011;11313;50.116;8.424;2023-05-10T16:27:12;1999.90;;;999.90;;
22289;SDS011;11313;50.116;8.424;2023-05-10T16:29:37;1999.90;;;999.90;;
22289;SDS011;11313;50.116;8.424;2023-05-10T16:32:03;1999.90;;;999.90;;
22289;SDS011;11313;50.116;8.424;2023-05-10T16:34:29;1999.90;;;999.90;;
22289;SDS011;11313;50.116;8.424;2023-05-10T16:36:54;1999.90;;;999.90;;
22289;SDS011;11313;50.116;8.424;2023-05-10T16:39:19;1999.90;;;999.90;;
22289;SDS011;11313;50.116;8.424;2023-05-10T16:41:45;1999.90;;;999.90;;
22289;SDS011;11313;50.116;8.424;2023-05-10T16:44:10;1999.90;;;999.90;;
22289;SDS011;11313;50.116;8.424;2023-05-10T16:46:36;1999.90;;;999.90;;
22289;SDS011;11313;50.116;8.424;2023-05-10T16:49:01;1999.90;;;999.90;;
22289;SDS011;11313;50.116;8.424;2023-05-10T16:51:27;1999.90;;;999.90;;
22289;SDS011;11313;50.116;8.424;2023-05-10T16:53:53;1999.90;;;999.90;;
22289;SDS011;11313;50.116;8.424;2023-05-10T16:56:19;1999.90;;;999.90;;
22289;SDS011;11313;50.116;8.424;2023-05-10T16:58:46;1999.90;;;999.90;;
22289;SDS011;11313;50.116;8.424;2023-05-10T17:01:13;1999.90;;;999.90;;
22289;SDS011;11313;50.116;8.424;2023-05-10T17:03:40;1999.90;;;999.90;;
22289;SDS011;11313;50.116;8.424;2023-05-10T17:06:05;1999.90;;;999.90;;
22289;SDS011;11313;50.116;8.424;2023-05-10T17:08:31;1999.90;;;999.90;;
22289;SDS011;11313;50.116;8.424;2023-05-10T17:10:59;1999.90;;;999.90;;
22289;SDS011;11313;50.116;8.424;2023-05-10T17:13:26;1999.90;;;999.90;;
22289;SDS011;11313;50.116;8.424;2023-05-10T17:15:52;1999.90;;;999.90;;
22289;SDS011;11313;50.116;8.424;2023-05-10T17:18:18;1999.90;;;999.90;;
22289;SDS011;11313;50.116;8.424;2023-05-10T17:20:43;1999.90;;;999.90;;
22289;SDS011;11313;50.116;8.424;2023-05-10T17:23:09;1999.90;;;999.90;;
22289;SDS011;11313;50.116;8.424;2023-05-10T17:25:35;1999.90;;;999.90;;
22289;SDS011;11313;50.116;8.424;2023-05-10T17:28:01;1999.90;;;999.90;;
22289;SDS011;11313;50.116;8.424;2023-05-10T17:30:27;1999.90;;;999.90;;
22289;SDS011;11313;50.116;8.424;2023-05-10T17:32:56;1999.90;;;999.90;;
22289;SDS011;11313;50.116;8.424;2023-05-10T17:35:24;1999.90;;;999.90;;
22289;SDS011;11313;50.116;8.424;2023-05-10T17:37:50;1999.90;;;999.90;;
22289;SDS011;11313;50.116;8.424;2023-05-10T17:40:16;1999.90;;;999.90;;
22289;SDS011;11313;50.116;8.424;2023-05-10T17:42:42;1999.90;;;999.90;;
22289;SDS011;11313;50.116;8.424;2023-05-10T17:45:07;1999.90;;;999.90;;
22289;SDS011;11313;50.116;8.424;2023-05-10T17:47:33;1999.90;;;999.90;;
22289;SDS011;11313;50.116;8.424;2023-05-10T17:49:59;1999.90;;;999.90;;
22289;SDS011;11313;50.116;8.424;2023-05-10T17:52:24;1999.90;;;999.90;;
22289;SDS011;11313;50.116;8.424;2023-05-10T17:54:50;1999.90;;;999.90;;
22289;SDS011;11313;50.116;8.424;2023-05-10T17:57:17;1999.90;;;999.90;;
22289;SDS011;11313;50.116;8.424;2023-05-10T17:59:42;1999.90;;;999.90;;
22289;SDS011;11313;50.116;8.424;2023-05-10T18:02:08;1999.90;;;999.90;;
22289;SDS011;11313;50.116;8.424;2023-05-10T18:04:33;1999.90;;;999.90;;
22289;SDS011;11313;50.116;8.424;2023-05-10T18:06:59;1999.90;;;999.90;;
22289;SDS011;11313;50.116;8.424;2023-05-10T18:09:28;1999.90;;;999.90;;
22289;SDS011;11313;50.116;8.424;2023-05-10T18:11:54;1999.90;;;999.90;;
22289;SDS011;11313;50.116;8.424;2023-05-10T18:14:19;1999.90;;;999.90;;
22289;SDS011;11313;50.116;8.424;2023-05-10T18:16:46;1999.90;;;999.90;;
22289;SDS011;11313;50.116;8.424;2023-05-10T18:19:12;1999.90;;;999.90;;
22289;SDS011;11313;50.116;8.424;2023-05-10T18:21:38;1999.90;;;999.90;;
22289;SDS011;11313;50.116;8.424;2023-05-10T18:24:03;1999.90;;;999.90;;
22289;SDS011;11313;50.116;8.424;2023-05-10T18:26:29;1999.90;;;999.90;;
22289;SDS011;11313;50.116;8.424;2023-05-10T18:28:55;1999.90;;;999.90;;
22289;SDS011;11313;50.116;8.424;2023-05-10T18:31:21;1999.90;;;999.90;;
22289;SDS011;11313;50.116;8.424;2023-05-10T18:33:46;1999.90;;;999.90;;
22289;SDS011;11313;50.116;8.424;2023-05-10T18:36:12;1999.90;;;999.90;;
22289;SDS011;11313;50.116;8.424;2023-05-10T18:38:38;1999.90;;;999.90;;
22289;SDS011;11313;50.116;8.424;2023-05-10T18:41:04;1999.90;;;999.90;;
22289;SDS011;11313;50.116;8.424;2023-05-10T18:43:30;1999.90;;;999.90;;
22289;SDS011;11313;50.116;8.424;2023-05-10T18:45:58;1999.90;;;999.90;;
22289;SDS011;11313;50.116;8.424;2023-05-10T18:48:23;1999.90;;;999.90;;
22289;SDS011;11313;50.116;8.424;2023-05-10T18:50:49;1999.90;;;999.90;;
22289;SDS011;11313;50.116;8.424;2023-05-10T18:53:14;1999.90;;;999.90;;
22289;SDS011;11313;50.116;8.424;2023-05-10T18:55:40;1999.90;;;999.90;;
22289;SDS011;11313;50.116;8.424;2023-05-10T18:58:06;1999.90;;;999.90;;
22289;SDS011;11313;50.116;8.424;2023-05-10T19:00:31;1999.90;;;999.90;;
22289;SDS011;11313;50.116;8.424;2023-05-10T19:02:57;1999.90;;;999.90;;
22289;SDS011;11313;50.116;8.424;2023-05-10T19:05:22;1999.90;;;999.90;;
22289;SDS011;11313;50.116;8.424;2023-05-10T19:07:53;1999.90;;;999.90;;
22289;SDS011;11313;50.116;8.424;2023-05-10T19:10:20;1999.90;;;999.90;;
22289;SDS011;11313;50.116;8.424;2023-05-10T19:12:45;1999.90;;;999.90;;
22289;SDS011;11313;50.116;8.424;2023-05-10T19:15:11;1999.90;;;999.90;;
22289;SDS011;11313;50.116;8.424;2023-05-10T19:17:36;1999.90;;;999.90;;
22289;SDS011;11313;50.116;8.424;2023-05-10T19:20:03;1999.90;;;999.90;;
22289;SDS011;11313;50.116;8.424;2023-05-10T19:22:29;1999.90;;;999.90;;
22289;SDS011;11313;50.116;8.424;2023-05-10T19:24:55;1999.90;;;999.90;;
22289;SDS011;11313;50.116;8.424;2023-05-10T19:27:20;1999.90;;;999.90;;
22289;SDS011;11313;50.116;8.424;2023-05-10T19:29:46;1999.90;;;999.90;;
22289;SDS011;11313;50.116;8.424;2023-05-10T19:32:11;1999.90;;;999.90;;
22289;SDS011;11313;50.116;8.424;2023-05-10T19:34:37;1999.90;;;999.90;;
22289;SDS011;11313;50.116;8.424;2023-05-10T19:37:02;1999.90;;;999.90;;
22289;SDS011;11313;50.116;8.424;2023-05-10T19:39:28;1999.90;;;999.90;;
22289;SDS011;11313;50.116;8.424;2023-05-10T19:41:54;1999.90;;;999.90;;
22289;SDS011;11313;50.116;8.424;2023-05-10T19:44:20;1999.90;;;999.90;;
22289;SDS011;11313;50.116;8.424;2023-05-10T19:46:46;1999.90;;;999.90;;
22289;SDS011;11313;50.116;8.424;2023-05-10T19:49:11;1999.90;;;999.90;;
22289;SDS011;11313;50.116;8.424;2023-05-10T19:51:37;1999.90;;;999.90;;
22289;SDS011;11313;50.116;8.424;2023-05-10T19:54:02;1999.90;;;999.90;;
22289;SDS011;11313;50.116;8.424;2023-05-10T19:56:28;1999.90;;;999.90;;
22289;SDS011;11313;50.116;8.424;2023-05-10T19:58:53;1999.90;;;999.90;;
22289;SDS011;11313;50.116;8.424;2023-05-10T20:01:19;1999.90;;;999.90;;
22289;SDS011;11313;50.116;8.424;2023-05-10T20:03:44;1999.90;;;999.90;;
22289;SDS011;11313;50.116;8.424;2023-05-10T20:06:10;1999.90;;;999.90;;
22289;SDS011;11313;50.116;8.424;2023-05-10T20:08:36;1999.90;;;999.90;;
22289;SDS011;11313;50.116;8.424;2023-05-10T20:11:01;1999.90;;;999.90;;
22289;SDS011;11313;50.116;8.424;2023-05-10T20:13:28;1999.90;;;999.90;;
22289;SDS011;11313;50.116;8.424;2023-05-10T20:15:54;1999.90;;;999.90;;
22289;SDS011;11313;50.116;8.424;2023-05-10T20:18:20;1999.90;;;999.90;;
22289;SDS011;11313;50.116;8.424;2023-05-10T20:20:46;1999.90;;;999.90;;
22289;SDS011;11313;50.116;8.424;2023-05-10T20:23:11;1999.90;;;999.90;;
22289;SDS011;11313;50.116;8.424;2023-05-10T20:25:38;1999.90;;;999.90;;
22289;SDS011;11313;50.116;8.424;2023-05-10T20:28:04;1999.90;;;999.90;;
22289;SDS011;11313;50.116;8.424;2023-05-10T20:30:31;1999.90;;;999.90;;
22289;SDS011;11313;50.116;8.424;2023-05-10T20:32:57;1999.90;;;999.90;;
22289;SDS011;11313;50.116;8.424;2023-05-10T20:35:22;1999.90;;;999.90;;
22289;SDS011;11313;50.116;8.424;2023-05-10T20:37:48;1999.90;;;999.90;;
22289;SDS011;11313;50.116;8.424;2023-05-10T20:40:13;1999.90;;;999.90;;
22289;SDS011;11313;50.116;8.424;2023-05-10T20:42:39;1999.90;;;999.90;;
22289;SDS011;11313;50.116;8.424;2023-05-10T20:45:05;1999.90;;;999.90;;
22289;SDS011;11313;50.116;8.424;2023-05-10T20:47:31;1999.90;;;999.90;;
22289;SDS011;11313;50.116;8.424;2023-05-10T20:49:56;1999.90;;;999.90;;
22289;SDS011;11313;50.116;8.424;2023-05-10T20:52:22;1999.90;;;999.90;;
22289;SDS011;11313;50.116;8.424;2023-05-10T20:54:47;1999.90;;;999.90;;
22289;SDS011;11313;50.116;8.424;2023-05-10T20:57:13;1999.90;;;999.90;;
22289;SDS011;11313;50.116;8.424;2023-05-10T20:59:38;1999.90;;;999.90;;
22289;SDS011;11313;50.116;8.424;2023-05-10T21:02:04;1999.90;;;999.90;;
22289;SDS011;11313;50.116;8.424;2023-05-10T21:04:29;1999.90;;;999.90;;
22289;SDS011;11313;50.116;8.424;2023-05-10T21:06:55;1999.90;;;999.90;;
22289;SDS011;11313;50.116;8.424;2023-05-10T21:09:21;1999.90;;;999.90;;
22289;SDS011;11313;50.116;8.424;2023-05-10T21:11:47;1999.90;;;999.90;;
22289;SDS011;11313;50.116;8.424;2023-05-10T21:14:13;1999.90;;;999.90;;
22289;SDS011;11313;50.116;8.424;2023-05-10T21:16:39;1999.90;;;999.90;;
22289;SDS011;11313;50.116;8.424;2023-05-10T21:19:04;1999.90;;;999.90;;
22289;SDS011;11313;50.116;8.424;2023-05-10T21:21:31;1999.90;;;999.90;;
22289;SDS011;11313;50.116;8.424;2023-05-10T21:23:59;1999.90;;;999.90;;